KABR

Aberdeen Regional Airport

Airport
ICAO code
KABR
IATA Code
ABR
Summary
ICAO Region
NAM
ICAO Territory
Location

Aberdeen, South Dakota

Serving
Aberdeen
Elevation
1302 ft
Coordinates
45° 27' 11" N , 98° 25' 6" W
KCC
Airport CFIT
Altimeter Temperature Error Correction
Metar
KABR 191053Z AUTO 29020G31KT 10SM CLR M02/M08 A3015 RMK AO2 PK WND 30031/1050 SLP224 T10221083

Description

Aberdeen Regional Airport is a public use airport located 4 km east of the central business district of Aberdeen, a city in Brown County, South Dakota.

Climatology

Humid continental climate (Köppen climate classification Dfa) - characterized by four seasons: cold, windy, snowy winters, mild springs, hot, humid summers, and crisp and relatively short autumns. Precipitation reaches its lowest in January and February and peaks in summer and latter half of spring.

Airport map

Aerial View

SKYbrary Partners:

Safety knowledge contributed by: